createdAt,value
2018-03-14T00:00:28.444Z,10.68
2018-03-14T00:01:08.971Z,10.7
2018-03-14T00:01:49.441Z,10.78
2018-03-14T00:02:29.947Z,10.68
2018-03-14T00:03:10.462Z,10.63
2018-03-14T00:03:50.967Z,10.55
2018-03-14T00:04:31.478Z,10.51
2018-03-14T00:05:12.009Z,10.52
2018-03-14T00:05:52.509Z,10.6
2018-03-14T00:06:33.023Z,10.67
2018-03-14T00:07:13.556Z,10.68
2018-03-14T00:07:54.024Z,10.67
2018-03-14T00:08:34.540Z,10.68
2018-03-14T00:09:15.035Z,10.59
2018-03-14T00:09:55.570Z,10.76
2018-03-14T00:10:36.091Z,10.71
2018-03-14T00:11:16.598Z,10.68
2018-03-14T00:11:57.116Z,10.76
2018-03-14T00:12:37.661Z,10.63
2018-03-14T00:13:18.171Z,10.55
2018-03-14T00:13:58.679Z,10.66
2018-03-14T00:14:39.171Z,10.51
2018-03-14T00:15:19.688Z,10.59
2018-03-14T00:16:00.178Z,10.51
2018-03-14T00:16:40.691Z,10.41
2018-03-14T00:17:21.220Z,10.53
2018-03-14T00:18:01.718Z,10.55
2018-03-14T00:18:42.228Z,10.64
2018-03-14T00:19:22.771Z,10.51
2018-03-14T00:20:03.278Z,10.61
2018-03-14T00:20:43.793Z,10.61
2018-03-14T00:21:24.308Z,10.53
2018-03-14T00:22:04.830Z,10.7
2018-03-14T00:22:45.326Z,10.56
2018-03-14T00:23:25.825Z,10.52
2018-03-14T00:24:06.304Z,10.52
2018-03-14T00:24:46.810Z,10.51
2018-03-14T00:25:27.299Z,10.66
2018-03-14T00:26:07.807Z,10.63
2018-03-14T00:26:48.342Z,10.56
2018-03-14T00:27:28.835Z,10.55
2018-03-14T00:28:09.346Z,10.61
2018-03-14T00:28:49.852Z,10.63
2018-03-14T00:29:30.372Z,10.64
2018-03-14T00:30:10.901Z,10.64
2018-03-14T00:30:51.429Z,10.64
2018-03-14T00:31:31.941Z,10.63
2018-03-14T00:32:12.450Z,10.51
2018-03-14T00:32:52.951Z,10.56
2018-03-14T00:33:33.466Z,10.52
2018-03-14T00:34:13.989Z,10.51
2018-03-14T00:34:54.517Z,10.56
2018-03-14T00:35:35.036Z,10.52
2018-03-14T00:36:15.542Z,10.52
2018-03-14T00:36:56.054Z,10.48
2018-03-14T00:37:36.544Z,10.55
2018-03-14T00:38:17.053Z,10.63
2018-03-14T00:38:57.560Z,10.61
2018-03-14T00:39:38.077Z,10.82
2018-03-14T00:40:18.603Z,10.7
2018-03-14T00:40:59.119Z,10.81
2018-03-14T00:41:39.632Z,10.91
2018-03-14T00:42:20.152Z,10.89
2018-03-14T00:43:00.661Z,10.88
2018-03-14T00:43:41.170Z,10.82
2018-03-14T00:44:21.691Z,10.74
2018-03-14T00:45:02.207Z,10.74
2018-03-14T00:45:42.728Z,10.79
2018-03-14T00:46:23.233Z,10.79
2018-03-14T00:47:03.751Z,10.76
2018-03-14T00:47:44.270Z,10.71
2018-03-14T00:48:24.789Z,10.63
2018-03-14T00:49:05.305Z,10.81
2018-03-14T00:49:45.803Z,10.71
2018-03-14T00:50:26.317Z,10.63
2018-03-14T00:51:06.837Z,10.67
2018-03-14T00:51:47.349Z,10.51
2018-03-14T00:52:27.866Z,10.73
2018-03-14T00:53:08.376Z,10.71
2018-03-14T00:53:48.885Z,10.6
2018-03-14T00:54:29.410Z,10.71
2018-03-14T00:55:09.919Z,10.73
2018-03-14T00:55:50.456Z,10.59
2018-03-14T00:56:30.963Z,10.61
2018-03-14T00:57:11.481Z,10.67
2018-03-14T00:57:52.022Z,10.59
2018-03-14T00:58:32.506Z,10.64
2018-03-14T00:59:13.009Z,10.66
2018-03-14T00:59:53.519Z,10.61
2018-03-14T01:00:34.041Z,10.67
2018-03-14T01:01:14.556Z,10.67
2018-03-14T01:01:55.065Z,10.6
2018-03-14T01:02:35.580Z,10.53
2018-03-14T01:03:16.092Z,10.61
2018-03-14T01:03:56.612Z,10.63
2018-03-14T01:04:37.126Z,10.55
2018-03-14T01:05:17.677Z,10.52
2018-03-14T01:05:58.193Z,10.53
2018-03-14T01:06:38.715Z,10.59
2018-03-14T01:07:19.227Z,10.6
2018-03-14T01:07:59.740Z,10.6
2018-03-14T01:08:40.214Z,10.68
2018-03-14T01:09:20.737Z,10.68
2018-03-14T01:10:01.274Z,10.64
2018-03-14T01:10:41.761Z,10.52
2018-03-14T01:11:22.268Z,10.55
2018-03-14T01:12:02.771Z,10.52
2018-03-14T01:12:43.287Z,10.42
2018-03-14T01:13:23.800Z,10.51
2018-03-14T01:14:04.311Z,10.55
2018-03-14T01:14:44.800Z,10.53
2018-03-14T01:15:25.305Z,10.52
2018-03-14T01:16:05.818Z,10.52
2018-03-14T01:16:46.329Z,10.61
2018-03-14T01:17:26.854Z,10.48
2018-03-14T01:18:07.360Z,10.56
2018-03-14T01:18:47.871Z,10.68
2018-03-14T01:19:28.365Z,10.56
2018-03-14T01:20:08.856Z,10.59
2018-03-14T01:20:49.370Z,10.64
2018-03-14T01:21:29.875Z,10.7
2018-03-14T01:22:10.386Z,10.59
2018-03-14T01:22:50.874Z,10.61
2018-03-14T01:23:31.375Z,10.64
2018-03-14T01:24:11.908Z,10.53
2018-03-14T01:24:52.396Z,10.61
2018-03-14T01:25:32.886Z,10.71
2018-03-14T01:26:13.412Z,10.67
2018-03-14T01:26:53.927Z,10.63
2018-03-14T01:27:34.421Z,10.63
2018-03-14T01:28:14.922Z,10.55
2018-03-14T01:28:55.427Z,10.67
2018-03-14T01:29:35.895Z,10.73
2018-03-14T01:30:16.400Z,10.7
2018-03-14T01:30:56.898Z,10.74
2018-03-14T01:31:37.378Z,10.67
2018-03-14T01:32:17.922Z,10.79
2018-03-14T01:32:58.432Z,10.67
2018-03-14T01:33:38.866Z,10.74
2018-03-14T01:34:19.358Z,10.84
2018-03-14T01:34:59.885Z,10.84
2018-03-14T01:35:40.342Z,10.74
2018-03-14T01:36:20.871Z,10.81
2018-03-14T01:37:01.347Z,10.81
2018-03-14T01:37:41.852Z,10.82
2018-03-14T01:38:22.363Z,10.82
2018-03-14T01:39:02.836Z,10.82
2018-03-14T01:39:43.336Z,10.82
2018-03-14T01:40:23.837Z,10.78
2018-03-14T01:41:04.355Z,10.82
2018-03-14T01:41:44.888Z,10.86
2018-03-14T01:42:25.386Z,10.76
2018-03-14T01:43:05.902Z,10.73
2018-03-14T01:43:46.376Z,10.7
2018-03-14T01:44:26.884Z,10.48
2018-03-14T01:45:07.407Z,10.63
2018-03-14T01:45:47.950Z,10.64
2018-03-14T01:46:28.470Z,10.59
2018-03-14T01:47:08.970Z,10.67
2018-03-14T01:47:49.502Z,10.68
2018-03-14T01:48:30.006Z,10.56
2018-03-14T01:49:10.524Z,10.61
2018-03-14T01:49:51.064Z,10.6
2018-03-14T01:50:31.567Z,10.59
2018-03-14T01:51:12.067Z,10.64
2018-03-14T01:51:52.582Z,10.64
2018-03-14T01:52:33.098Z,10.64
2018-03-14T01:53:13.622Z,10.64
2018-03-14T01:53:54.125Z,10.66
2018-03-14T01:54:34.638Z,10.67
2018-03-14T01:55:15.156Z,10.61
2018-03-14T01:55:55.685Z,10.59
2018-03-14T01:56:36.192Z,10.64
2018-03-14T01:57:16.720Z,10.71
2018-03-14T01:57:57.233Z,10.66
2018-03-14T01:58:37.741Z,10.73
2018-03-14T01:59:18.257Z,10.48
2018-03-14T01:59:58.768Z,10.56
2018-03-14T02:00:39.301Z,10.52
2018-03-14T02:01:19.813Z,10.52
2018-03-14T02:02:00.328Z,10.61
2018-03-14T02:02:40.848Z,10.55
2018-03-14T02:03:21.362Z,10.52
2018-03-14T02:04:01.879Z,10.48
2018-03-14T02:04:42.395Z,10.63
2018-03-14T02:05:22.935Z,10.64
2018-03-14T02:06:03.427Z,10.74
2018-03-14T02:06:43.941Z,10.63
2018-03-14T02:07:24.473Z,10.81
2018-03-14T02:08:04.981Z,10.74
2018-03-14T02:08:45.496Z,10.81
2018-03-14T02:09:26.017Z,10.7
2018-03-14T02:10:06.530Z,10.64
2018-03-14T02:10:47.052Z,10.66
2018-03-14T02:11:27.566Z,10.7
2018-03-14T02:12:08.066Z,10.68
2018-03-14T02:12:48.584Z,10.7
2018-03-14T02:13:29.082Z,10.71
2018-03-14T02:14:09.620Z,10.79
2018-03-14T02:14:50.140Z,10.67
2018-03-14T02:15:30.662Z,10.73
2018-03-14T02:16:11.172Z,10.59
2018-03-14T02:16:51.692Z,10.71
2018-03-14T02:17:32.207Z,10.73
2018-03-14T02:18:12.732Z,10.66
2018-03-14T02:18:53.245Z,10.63
2018-03-14T02:19:33.757Z,10.53
2018-03-14T02:20:14.268Z,10.56
2018-03-14T02:20:54.795Z,10.67
2018-03-14T02:21:35.297Z,10.6
2018-03-14T02:22:15.821Z,10.63
2018-03-14T02:22:56.366Z,10.61
2018-03-14T02:23:36.889Z,10.71
2018-03-14T02:24:17.416Z,10.66
2018-03-14T02:24:57.926Z,10.63
2018-03-14T02:25:38.443Z,10.56
2018-03-14T02:26:18.956Z,10.61
2018-03-14T02:26:59.476Z,10.55
2018-03-14T02:27:39.991Z,10.52
2018-03-14T02:28:20.534Z,10.52
2018-03-14T02:29:01.029Z,10.44
2018-03-14T02:29:41.549Z,10.52
2018-03-14T02:30:22.067Z,10.44
2018-03-14T02:31:02.583Z,10.59
2018-03-14T02:31:43.093Z,10.7
2018-03-14T02:32:23.620Z,10.6
2018-03-14T02:33:04.137Z,10.56
2018-03-14T02:33:44.647Z,10.55
2018-03-14T02:34:25.172Z,10.61
2018-03-14T02:35:05.673Z,10.63
2018-03-14T02:35:46.201Z,10.61
2018-03-14T02:36:26.708Z,10.66
2018-03-14T02:37:07.229Z,10.56
2018-03-14T02:37:47.757Z,10.61
2018-03-14T02:38:28.288Z,10.63
2018-03-14T02:39:08.796Z,10.68
2018-03-14T02:39:49.313Z,10.74
2018-03-14T02:40:29.833Z,10.71
2018-03-14T02:41:10.339Z,10.74
2018-03-14T02:41:50.857Z,10.7
2018-03-14T02:42:31.382Z,10.7
2018-03-14T02:43:11.952Z,10.61
2018-03-14T02:43:52.394Z,10.63
2018-03-14T02:44:32.895Z,10.64
2018-03-14T02:45:13.414Z,10.67
2018-03-14T02:45:53.937Z,10.68
2018-03-14T02:46:34.470Z,10.82
2018-03-14T02:47:14.981Z,10.78
2018-03-14T02:47:55.532Z,10.88
2018-03-14T02:48:36.026Z,10.85
2018-03-14T02:49:16.540Z,10.78
2018-03-14T02:49:57.052Z,10.73
2018-03-14T02:50:37.573Z,10.63
2018-03-14T02:51:18.087Z,10.61
2018-03-14T02:51:58.619Z,10.6
2018-03-14T02:52:39.130Z,10.63
2018-03-14T02:53:19.639Z,10.68
2018-03-14T02:54:00.172Z,10.61
2018-03-14T02:54:40.689Z,10.61
2018-03-14T02:55:21.194Z,10.61
2018-03-14T02:56:01.706Z,10.61
2018-03-14T02:56:42.221Z,10.61
2018-03-14T02:57:22.740Z,10.6
2018-03-14T02:58:03.255Z,10.66
2018-03-14T02:58:43.776Z,10.67
2018-03-14T02:59:24.287Z,10.64
2018-03-14T03:00:04.800Z,10.66
2018-03-14T03:00:45.326Z,10.55
2018-03-14T03:01:25.826Z,10.63
2018-03-14T03:02:06.338Z,10.66
2018-03-14T03:02:46.852Z,10.78
2018-03-14T03:03:27.391Z,10.67
2018-03-14T03:04:07.904Z,10.61
2018-03-14T03:04:48.428Z,10.7
2018-03-14T03:05:28.939Z,10.67
2018-03-14T03:06:09.460Z,10.73
2018-03-14T03:06:49.973Z,10.64
2018-03-14T03:07:30.484Z,10.67
2018-03-14T03:08:11.054Z,10.52
2018-03-14T03:08:51.539Z,10.53
2018-03-14T03:09:32.057Z,10.55
2018-03-14T03:10:12.564Z,10.53
2018-03-14T03:10:53.075Z,10.61
2018-03-14T03:11:33.600Z,10.6
2018-03-14T03:12:14.127Z,10.53
2018-03-14T03:12:54.630Z,10.48
2018-03-14T03:13:35.146Z,10.4
2018-03-14T03:14:15.662Z,10.4
2018-03-14T03:14:56.188Z,10.4
2018-03-14T03:15:36.706Z,10.38
2018-03-14T03:16:17.214Z,10.47
2018-03-14T03:16:57.730Z,10.52
2018-03-14T03:17:38.256Z,10.52
2018-03-14T03:18:18.782Z,10.52
2018-03-14T03:18:59.303Z,10.53
2018-03-14T03:19:39.807Z,10.34
2018-03-14T03:20:20.321Z,10.48
2018-03-14T03:21:00.834Z,10.52
2018-03-14T03:21:41.364Z,10.53
2018-03-14T03:22:21.874Z,10.3
2018-03-14T03:23:02.395Z,10.32
2018-03-14T03:23:42.895Z,10.41
2018-03-14T03:24:23.426Z,10.53
2018-03-14T03:25:03.939Z,10.41
2018-03-14T03:25:44.444Z,10.42
2018-03-14T03:26:24.937Z,10.38
2018-03-14T03:27:05.442Z,10.34
2018-03-14T03:27:45.949Z,10.38
2018-03-14T03:28:26.463Z,10.3
2018-03-14T03:29:06.961Z,10.17
2018-03-14T03:29:47.522Z,10.18
2018-03-14T03:30:28.046Z,10.3
2018-03-14T03:31:08.552Z,10.3
2018-03-14T03:31:49.043Z,10.29
2018-03-14T03:32:29.539Z,10.33
2018-03-14T03:33:10.038Z,10.55
2018-03-14T03:33:50.551Z,10.4
2018-03-14T03:34:31.031Z,10.34
2018-03-14T03:35:11.572Z,10.32
2018-03-14T03:35:52.049Z,10.29
2018-03-14T03:36:32.564Z,10.36
2018-03-14T03:37:13.075Z,10.34
2018-03-14T03:37:53.588Z,10.41
2018-03-14T03:38:34.088Z,10.55
2018-03-14T03:39:14.614Z,10.41
2018-03-14T03:39:55.188Z,10.45
2018-03-14T03:40:35.711Z,10.48
2018-03-14T03:41:16.231Z,10.48
2018-03-14T03:41:56.757Z,10.59
2018-03-14T03:42:37.244Z,10.48
2018-03-14T03:43:17.816Z,10.4
2018-03-14T03:43:58.271Z,10.48
2018-03-14T03:44:38.791Z,10.56
2018-03-14T03:45:19.295Z,10.63
2018-03-14T03:45:59.799Z,10.64
2018-03-14T03:46:40.294Z,10.56
2018-03-14T03:47:20.805Z,10.67
2018-03-14T03:48:01.311Z,10.73
2018-03-14T03:48:41.830Z,10.6
2018-03-14T03:49:22.338Z,10.59
2018-03-14T03:50:02.840Z,10.67
2018-03-14T03:50:43.349Z,10.59
2018-03-14T03:51:23.861Z,10.74
2018-03-14T03:52:04.377Z,10.81
2018-03-14T03:52:44.882Z,10.71
2018-03-14T03:53:25.398Z,10.61
2018-03-14T03:54:05.912Z,10.71
2018-03-14T03:54:46.414Z,10.56
2018-03-14T03:55:26.921Z,10.63
2018-03-14T03:56:07.432Z,10.6
2018-03-14T03:56:47.941Z,10.61
2018-03-14T03:57:28.445Z,10.71
2018-03-14T03:58:08.951Z,10.64
2018-03-14T03:58:49.455Z,10.59
2018-03-14T03:59:30.004Z,10.68
2018-03-14T04:00:10.517Z,10.55
2018-03-14T04:00:51.030Z,10.7
2018-03-14T04:01:31.531Z,10.6
2018-03-14T04:02:12.042Z,10.7
2018-03-14T04:02:52.550Z,10.67
2018-03-14T04:03:33.046Z,10.56
2018-03-14T04:04:13.579Z,10.74
2018-03-14T04:04:54.124Z,10.67
2018-03-14T04:05:34.593Z,10.7
2018-03-14T04:06:15.109Z,10.81
2018-03-14T04:06:55.613Z,10.71
2018-03-14T04:07:36.122Z,10.67
2018-03-14T04:08:16.637Z,10.64
2018-03-14T04:08:57.156Z,10.68
2018-03-14T04:09:37.667Z,10.7
2018-03-14T04:10:18.191Z,10.78
2018-03-14T04:10:58.708Z,10.71
2018-03-14T04:11:39.164Z,10.71
2018-03-14T04:12:19.662Z,10.63
2018-03-14T04:13:00.179Z,10.71
2018-03-14T04:13:40.679Z,10.71
2018-03-14T04:14:21.199Z,10.55
2018-03-14T04:15:01.693Z,10.67
2018-03-14T04:15:42.204Z,10.73
2018-03-14T04:16:22.707Z,10.74
2018-03-14T04:17:03.188Z,10.51
2018-03-14T04:17:43.700Z,10.63
2018-03-14T04:18:24.219Z,10.59
2018-03-14T04:19:04.719Z,10.6
2018-03-14T04:19:45.231Z,10.73
2018-03-14T04:20:25.737Z,10.73
2018-03-14T04:21:06.255Z,10.76
2018-03-14T04:21:46.766Z,10.81
2018-03-14T04:22:27.284Z,10.81
2018-03-14T04:23:07.765Z,10.82
2018-03-14T04:23:48.287Z,10.73
2018-03-14T04:24:28.798Z,10.78
2018-03-14T04:25:09.292Z,10.81
2018-03-14T04:25:49.807Z,10.84
2018-03-14T04:26:30.317Z,10.82
2018-03-14T04:27:10.840Z,10.79
2018-03-14T04:27:51.354Z,10.82
2018-03-14T04:28:31.855Z,10.84
2018-03-14T04:29:12.362Z,10.7
2018-03-14T04:29:52.869Z,10.79
2018-03-14T04:30:33.377Z,10.82
2018-03-14T04:31:13.889Z,10.74
2018-03-14T04:31:54.395Z,10.79
2018-03-14T04:32:34.899Z,10.7
2018-03-14T04:33:15.401Z,10.73
2018-03-14T04:33:55.911Z,10.68
2018-03-14T04:34:36.420Z,10.7
2018-03-14T04:35:16.929Z,10.63
2018-03-14T04:35:57.422Z,10.6
2018-03-14T04:36:37.943Z,10.81
2018-03-14T04:37:18.458Z,10.74
2018-03-14T04:37:58.985Z,10.82
2018-03-14T04:38:39.479Z,10.82
2018-03-14T04:39:19.991Z,10.85
2018-03-14T04:40:00.513Z,10.79
2018-03-14T04:40:41.040Z,10.89
2018-03-14T04:41:21.538Z,10.88
2018-03-14T04:42:02.051Z,10.86
2018-03-14T04:42:42.577Z,10.86
2018-03-14T04:43:23.082Z,10.85
2018-03-14T04:44:03.616Z,10.89
2018-03-14T04:44:44.120Z,10.86
2018-03-14T04:45:24.615Z,10.79
2018-03-14T04:46:05.141Z,10.86
2018-03-14T04:46:45.654Z,10.81
2018-03-14T04:47:26.179Z,10.79
2018-03-14T04:48:06.703Z,10.78
2018-03-14T04:48:47.212Z,10.7
2018-03-14T04:49:27.728Z,10.59
2018-03-14T04:50:08.237Z,10.56
2018-03-14T04:50:48.749Z,10.73
2018-03-14T04:51:29.266Z,10.64
2018-03-14T04:52:09.787Z,10.67
2018-03-14T04:52:50.299Z,10.68
2018-03-14T04:53:30.815Z,10.59
2018-03-14T04:54:11.330Z,10.66
2018-03-14T04:54:51.852Z,10.59
2018-03-14T04:55:32.371Z,10.68
2018-03-14T04:56:12.858Z,10.7
2018-03-14T04:56:53.374Z,10.79
2018-03-14T04:57:33.886Z,10.82
2018-03-14T04:58:14.404Z,10.64
2018-03-14T04:58:54.912Z,10.63
2018-03-14T04:59:35.423Z,10.66
2018-03-14T05:00:15.936Z,10.73
2018-03-14T05:00:56.451Z,10.7
2018-03-14T05:01:36.973Z,10.79
2018-03-14T05:02:17.535Z,10.82
2018-03-14T05:02:58.018Z,10.68
2018-03-14T05:03:38.537Z,10.63
2018-03-14T05:04:19.086Z,10.51
2018-03-14T05:04:59.569Z,10.38
2018-03-14T05:05:40.075Z,10.26
2018-03-14T05:06:20.608Z,10.27
2018-03-14T05:07:01.116Z,10.27
2018-03-14T05:07:41.629Z,10.15
2018-03-14T05:08:22.140Z,10.27
2018-03-14T05:09:02.665Z,10.22
2018-03-14T05:09:43.188Z,10.33
2018-03-14T05:10:23.707Z,10.42
2018-03-14T05:11:04.226Z,10.41
2018-03-14T05:11:44.748Z,10.48
2018-03-14T05:12:25.254Z,10.55
2018-03-14T05:13:05.757Z,10.38
2018-03-14T05:13:46.277Z,10.32
2018-03-14T05:14:26.811Z,10.26
2018-03-14T05:15:07.321Z,10.36
2018-03-14T05:15:47.821Z,10.32
2018-03-14T05:16:28.332Z,10.27
2018-03-14T05:17:08.846Z,10.4
2018-03-14T05:17:49.368Z,10.48
2018-03-14T05:18:29.879Z,10.53
2018-03-14T05:19:10.397Z,10.51
2018-03-14T05:19:50.896Z,10.4
2018-03-14T05:20:31.410Z,10.3
2018-03-14T05:21:11.926Z,10.27
2018-03-14T05:21:52.425Z,10.29
2018-03-14T05:22:32.944Z,10.01
2018-03-14T05:23:13.453Z,10.11
2018-03-14T05:23:53.977Z,10.17
2018-03-14T05:24:34.501Z,10.04
2018-03-14T05:25:15.007Z,10.09
2018-03-14T05:25:55.519Z,10.08
2018-03-14T05:26:36.039Z,10.11
2018-03-14T05:27:16.561Z,10.02
2018-03-14T05:27:57.075Z,10.07
2018-03-14T05:28:37.585Z,10.2
2018-03-14T05:29:18.106Z,10.25
2018-03-14T05:29:58.625Z,10.27
2018-03-14T05:30:39.140Z,10.29
2018-03-14T05:31:19.646Z,10.29
2018-03-14T05:32:00.163Z,10.27
2018-03-14T05:32:40.734Z,10.36
2018-03-14T05:33:21.254Z,10.34
2018-03-14T05:34:01.759Z,10.41
2018-03-14T05:34:42.283Z,10.34
2018-03-14T05:35:22.806Z,10.26
2018-03-14T05:36:03.313Z,10.3
2018-03-14T05:37:57.145Z,10.22
2018-03-14T05:38:37.657Z,10.26
2018-03-14T05:39:18.180Z,10.17
2018-03-14T05:39:58.697Z,10.12
2018-03-14T05:40:39.247Z,9.99
2018-03-14T05:41:19.730Z,10.05
2018-03-14T05:42:00.252Z,10.26
2018-03-14T05:42:40.774Z,10.33
2018-03-14T05:43:21.275Z,10.42
2018-03-14T05:44:01.793Z,10.34
2018-03-14T05:44:42.308Z,10.4
2018-03-14T05:45:22.824Z,10.41
2018-03-14T05:46:03.343Z,10.4
2018-03-14T05:46:43.863Z,10.48
2018-03-14T05:47:24.388Z,10.41
2018-03-14T05:48:04.919Z,10.42
2018-03-14T05:48:45.427Z,10.4
2018-03-14T05:49:25.947Z,10.44
2018-03-14T05:50:06.457Z,10.4
2018-03-14T05:50:46.983Z,10.4
2018-03-14T05:51:27.487Z,10.3
2018-03-14T05:52:08.001Z,10.44
2018-03-14T05:52:48.514Z,10.53
2018-03-14T05:53:29.029Z,10.56
2018-03-14T05:54:09.543Z,10.52
2018-03-14T05:54:50.078Z,10.48
2018-03-14T05:55:30.588Z,10.63
2018-03-14T05:56:11.114Z,10.6
2018-03-14T05:56:51.613Z,10.52
2018-03-14T05:57:32.115Z,10.52
2018-03-14T05:58:12.640Z,10.52
2018-03-14T05:58:53.168Z,10.56
2018-03-14T05:59:33.686Z,10.56
2018-03-14T06:00:14.201Z,10.63
2018-03-14T06:00:54.707Z,10.55
2018-03-14T06:01:35.230Z,10.41
2018-03-14T06:02:15.735Z,10.38
2018-03-14T06:02:56.306Z,10.38
2018-03-14T06:03:36.789Z,10.53
2018-03-14T06:04:17.581Z,10.38
2018-03-14T06:04:58.099Z,10.44
2018-03-14T06:05:38.616Z,10.55
2018-03-14T06:06:19.134Z,10.51
2018-03-14T06:06:59.642Z,10.44
2018-03-14T06:07:40.148Z,10.4
2018-03-14T06:08:20.678Z,10.38
2018-03-14T06:09:01.198Z,10.41
2018-03-14T06:09:41.706Z,10.42
2018-03-14T06:10:22.220Z,10.36
2018-03-14T06:11:02.735Z,10.6
2018-03-14T06:11:43.237Z,10.48
2018-03-14T06:12:23.730Z,10.6
2018-03-14T06:13:04.263Z,10.53
2018-03-14T06:13:44.739Z,10.55
2018-03-14T06:14:25.861Z,10.52
2018-03-14T06:15:05.919Z,10.52
2018-03-14T06:15:46.416Z,10.52
2018-03-14T06:16:26.930Z,10.61
2018-03-14T06:17:07.404Z,10.6
2018-03-14T06:17:47.892Z,10.74
2018-03-14T06:18:28.398Z,10.82
2018-03-14T06:19:08.911Z,10.81
2018-03-14T06:19:49.454Z,10.89
2018-03-14T06:20:29.919Z,10.86
2018-03-14T06:21:10.420Z,10.82
2018-03-14T06:21:50.927Z,10.85
2018-03-14T06:22:31.463Z,10.89
2018-03-14T06:23:11.964Z,10.94
2018-03-14T06:23:52.482Z,10.86
2018-03-14T06:24:32.999Z,11.04
2018-03-14T06:25:13.531Z,11.14
2018-03-14T06:25:54.053Z,11.1
2018-03-14T06:26:34.556Z,11.15
2018-03-14T06:27:15.071Z,11.03
2018-03-14T06:27:55.569Z,11.04
2018-03-14T06:28:36.108Z,10.92
2018-03-14T06:29:16.622Z,10.94
2018-03-14T06:29:57.146Z,11.1
2018-03-14T06:30:37.655Z,11.19
2018-03-14T06:31:18.193Z,11.32
2018-03-14T06:31:58.711Z,11.18
2018-03-14T06:32:39.250Z,11.15
2018-03-14T06:33:19.747Z,10.99
2018-03-14T06:34:00.235Z,11.11
2018-03-14T06:34:40.729Z,11.19
2018-03-14T06:35:21.212Z,11.04
2018-03-14T06:36:01.720Z,11.09
2018-03-14T06:36:42.218Z,11.1
2018-03-14T06:37:22.730Z,11.04
2018-03-14T06:38:03.254Z,11.29
2018-03-14T06:38:43.798Z,11.72
2018-03-14T06:39:24.300Z,11.79
2018-03-14T06:40:04.806Z,11.95
2018-03-14T06:40:45.314Z,12.09
2018-03-14T06:41:25.800Z,12.24
2018-03-14T06:42:06.313Z,12.27
2018-03-14T06:42:46.806Z,12.23
2018-03-14T06:43:27.395Z,11.96
2018-03-14T06:44:07.830Z,11.95
2018-03-14T06:44:48.336Z,11.8
2018-03-14T06:45:28.849Z,11.62
2018-03-14T06:46:09.367Z,11.57
2018-03-14T06:46:49.892Z,11.54
2018-03-14T06:47:30.370Z,11.33
2018-03-14T06:48:10.885Z,11.07
2018-03-14T06:48:51.393Z,11.18
2018-03-14T06:49:31.906Z,11.35
2018-03-14T06:50:12.445Z,11.44
2018-03-14T06:50:52.932Z,11.57
2018-03-14T06:51:33.425Z,11.7
2018-03-14T06:52:13.953Z,11.64
2018-03-14T06:52:54.421Z,11.67
2018-03-14T06:53:34.962Z,11.58
2018-03-14T06:54:15.468Z,11.72
2018-03-14T06:54:55.983Z,11.79
2018-03-14T06:55:36.484Z,11.72
2018-03-14T06:56:16.976Z,11.86
2018-03-14T06:56:57.453Z,11.88
2018-03-14T06:57:37.963Z,11.96
2018-03-14T06:58:18.465Z,11.9
2018-03-14T06:58:59.003Z,11.96
2018-03-14T06:59:39.462Z,12.01
2018-03-14T07:00:20.022Z,11.98
2018-03-14T07:01:00.467Z,12.02
2018-03-14T07:01:40.960Z,12.07
2018-03-14T07:02:21.451Z,12.12
2018-03-14T07:03:01.930Z,12.12
2018-03-14T07:03:42.427Z,12.12
2018-03-14T07:04:22.922Z,12.2
2018-03-14T07:05:03.432Z,11.99
2018-03-14T07:05:43.940Z,12.04
2018-03-14T07:06:24.448Z,12.13
2018-03-14T07:07:04.928Z,12.17
2018-03-14T07:07:45.428Z,12.07
2018-03-14T07:08:25.936Z,12.07
2018-03-14T07:09:06.449Z,12.05
2018-03-14T07:09:46.985Z,12.49
2018-03-14T07:10:27.475Z,12.65
2018-03-14T07:11:08.003Z,12.7
2018-03-14T07:11:48.470Z,12.77
2018-03-14T07:12:28.968Z,12.93
2018-03-14T07:13:09.481Z,13
2018-03-14T07:13:50.003Z,13.08
2018-03-14T07:14:30.528Z,13.03
2018-03-14T07:15:11.036Z,12.92
2018-03-14T07:15:51.547Z,12.96
2018-03-14T07:16:32.071Z,13.04
2018-03-14T07:17:12.592Z,13.1
2018-03-14T07:17:53.124Z,13.12
2018-03-14T07:18:33.648Z,13.07
2018-03-14T07:19:14.131Z,12.85
2018-03-14T07:19:54.624Z,12.72
2018-03-14T07:20:35.115Z,12.71
2018-03-14T07:21:15.628Z,12.64
2018-03-14T07:21:56.113Z,12.62
2018-03-14T07:22:36.590Z,12.49
2018-03-14T07:23:17.190Z,12.57
2018-03-14T07:23:57.686Z,12.65
2018-03-14T07:24:38.207Z,12.68
2018-03-14T07:25:18.705Z,12.7
2018-03-14T07:25:59.206Z,12.83
2018-03-14T07:26:39.722Z,12.89
2018-03-14T07:27:20.241Z,13.07
2018-03-14T07:28:00.744Z,13.1
2018-03-14T07:28:41.262Z,13.12
2018-03-14T07:29:21.790Z,13.05
2018-03-14T07:30:02.301Z,12.95
2018-03-14T07:30:42.817Z,12.95
2018-03-14T07:31:23.337Z,13.1
2018-03-14T07:32:03.784Z,13.08
2018-03-14T07:32:44.297Z,12.96
2018-03-14T07:33:24.777Z,12.85
2018-03-14T07:34:05.307Z,12.95
2018-03-14T07:34:45.816Z,12.87
2018-03-14T07:35:26.334Z,12.82
2018-03-14T07:36:06.887Z,12.7
2018-03-14T07:36:47.341Z,12.89
2018-03-14T07:37:27.837Z,12.78
2018-03-14T07:38:08.337Z,12.93
2018-03-14T07:38:48.818Z,12.96
2018-03-14T07:39:29.334Z,12.83
2018-03-14T07:40:09.823Z,12.82
2018-03-14T07:40:50.323Z,13.04
2018-03-14T07:41:30.820Z,13.1
2018-03-14T07:42:11.377Z,13.14
2018-03-14T07:42:51.872Z,13.19
2018-03-14T07:43:32.359Z,13.22
2018-03-14T07:44:12.853Z,13.22
2018-03-14T07:44:53.353Z,13.14
2018-03-14T07:45:33.838Z,13.38
2018-03-14T07:46:14.387Z,13.3
2018-03-14T07:46:54.875Z,13.28
2018-03-14T07:47:35.653Z,13.12
2018-03-14T07:48:16.168Z,13.11
2018-03-14T07:48:56.678Z,13.3
2018-03-14T07:49:37.171Z,13.12
2018-03-14T07:50:17.685Z,13.2
2018-03-14T07:50:58.176Z,13.26
2018-03-14T07:51:38.688Z,13.12
2018-03-14T07:52:19.210Z,13.11
2018-03-14T07:52:59.709Z,12.85
2018-03-14T07:53:40.221Z,13.01
2018-03-14T07:54:20.723Z,12.97
2018-03-14T07:55:01.233Z,13.01
2018-03-14T07:55:41.777Z,13.11
2018-03-14T07:56:22.560Z,13.03
2018-03-14T07:57:03.074Z,13.12
2018-03-14T07:57:43.590Z,13.15
2018-03-14T07:58:24.097Z,13.3
2018-03-14T07:59:04.598Z,13.2
2018-03-14T07:59:45.119Z,13.19
2018-03-14T08:00:25.612Z,13.12
2018-03-14T08:01:06.121Z,13.11
2018-03-14T08:01:46.614Z,12.95
2018-03-14T08:02:27.100Z,13.1
2018-03-14T08:03:07.656Z,13
2018-03-14T08:03:48.167Z,12.86
2018-03-14T08:04:28.687Z,13.1
2018-03-14T08:05:09.203Z,13.11
2018-03-14T08:05:49.661Z,12.96
2018-03-14T08:06:30.152Z,13.29
2018-03-14T08:07:10.627Z,13.14
2018-03-14T08:07:51.120Z,13.23
2018-03-14T08:08:31.613Z,13.42
2018-03-14T08:09:12.119Z,13.32
2018-03-14T08:09:52.610Z,13.32
2018-03-14T08:10:33.123Z,13.51
2018-03-14T08:11:13.627Z,13.59
2018-03-14T08:11:54.137Z,13.44
2018-03-14T08:12:34.646Z,13.46
2018-03-14T08:13:15.173Z,13.28
2018-03-14T08:13:55.770Z,13.3
2018-03-14T08:14:36.187Z,13.01
2018-03-14T08:15:16.727Z,12.87
2018-03-14T08:15:57.224Z,13.11
2018-03-14T08:16:37.711Z,13.28
2018-03-14T08:17:18.210Z,13.63
2018-03-14T08:17:58.703Z,13.62
2018-03-14T08:18:39.229Z,13.67
2018-03-14T08:19:19.750Z,13.97
2018-03-14T08:20:00.276Z,14.03
2018-03-14T08:20:40.832Z,14.1
2018-03-14T08:21:21.385Z,14.14
2018-03-14T08:22:01.832Z,13.84
2018-03-14T08:22:42.326Z,13.88
2018-03-14T08:23:22.838Z,13.78
2018-03-14T08:24:03.315Z,13.78
2018-03-14T08:24:43.834Z,13.87
2018-03-14T08:25:24.325Z,13.79
2018-03-14T08:26:04.849Z,13.78
2018-03-14T08:26:45.352Z,13.78
2018-03-14T08:27:25.851Z,13.82
2018-03-14T08:28:06.341Z,13.96
2018-03-14T08:28:46.850Z,14.04
2018-03-14T08:29:27.374Z,14.17
2018-03-14T08:30:07.896Z,14.25
2018-03-14T08:30:48.376Z,14.33
2018-03-14T08:31:28.880Z,14.35
2018-03-14T08:32:09.373Z,14.28
2018-03-14T08:32:49.858Z,14.22
2018-03-14T08:33:30.379Z,14.24
2018-03-14T08:34:10.908Z,14.43
2018-03-14T08:34:51.422Z,14.33
2018-03-14T08:35:31.903Z,14.5
2018-03-14T08:36:12.427Z,14.54
2018-03-14T08:36:52.932Z,14.61
2018-03-14T08:37:33.431Z,14.46
2018-03-14T08:38:13.956Z,14.54
2018-03-14T08:38:54.473Z,14.43
2018-03-14T08:39:34.974Z,14.55
2018-03-14T08:40:15.467Z,14.68
2018-03-14T08:40:55.963Z,14.37
2018-03-14T08:41:36.491Z,14.27
2018-03-14T08:42:16.995Z,14.28
2018-03-14T08:42:57.484Z,14.4
2018-03-14T08:43:37.967Z,14.12
2018-03-14T08:44:18.480Z,14.37
2018-03-14T08:44:59.010Z,14.45